Terminal Aerodrome Forecast
Issued by NWS Greer, SC

Home | Current Version | Previous Version | Text Only | Print | Product List | Glossary On
Versions: 1 2 3 4 5 6 7 8 9 10 11 12 13 14
000
FTUS42 KGSP 251128
TAFAVL
TAF
KAVL 251128Z 2512/2612 33003KT P6SM FEW250
     FM251800 18005KT P6SM FEW050
     FM252000 18005KT P6SM VCSH SCT050
     FM260300 VRB02KT P6SM BKN035 PROB30 2603/2606 4SM -SHRA OVC025
     FM260600 14003KT 6SM BR OVC015
     FM260900 VRB02KT 1/2SM FG OVC003=

USA.gov is the U.S. government's official web portal to all federal, state and local government web resources and services.